Time,TemperatureF,DewpointF,PressureIn,WindDirection,WindDirectionDegrees,WindSpeedMPH,WindSpeedGustMPH,Humidity,HourlyPrecipIn,Conditions,Clouds,dailyrainin,SoftwareType,DateUTC
2013-04-21 00:01:00,48.7,46.8,29.84,SE,135,0.0,2.0,93,0.00,,,0.00,Weather View 32 v70,2013-04-21 04:01:00,
2013-04-21 00:06:00,48.9,47.0,29.84,SE,135,0.0,2.0,93,0.00,,,0.00,Weather View 32 v70,2013-04-21 04:06:00,
2013-04-21 00:11:00,49.0,47.6,29.84,SE,135,0.0,2.0,95,0.00,,,0.00,Weather View 32 v70,2013-04-21 04:11:00,
2013-04-21 00:16:00,48.8,48.0,29.84,SE,135,0.0,2.0,97,0.00,,,0.00,Weather View 32 v70,2013-04-21 04:16:00,
2013-04-21 00:21:00,48.6,47.5,29.84,SE,135,0.0,2.0,96,0.00,,,0.00,Weather View 32 v70,2013-04-21 04:21:00,
2013-04-21 00:26:00,48.5,46.8,29.84,SE,135,1.0,2.0,94,0.00,,,0.00,Weather View 32 v70,2013-04-21 04:26:00,
2013-04-21 00:31:00,48.3,46.7,29.84,SE,135,0.0,2.0,94,0.00,,,0.00,Weather View 32 v70,2013-04-21 04:31:00,
2013-04-21 00:36:00,48.1,46.2,29.84,SE,135,0.0,2.0,93,0.00,,,0.00,Weather View 32 v70,2013-04-21 04:36:00,
2013-04-21 00:42:00,47.9,45.7,29.85,SE,135,0.0,2.0,92,0.00,,,0.00,Weather View 32 v70,2013-04-21 04:42:00,
2013-04-21 00:47:00,47.6,45.4,29.85,SE,135,0.0,2.0,92,0.02,,,0.00,Weather View 32 v70,2013-04-21 04:47:00,
2013-04-21 00:52:00,47.8,45.0,29.85,SE,135,0.0,2.0,90,0.00,,,0.00,Weather View 32 v70,2013-04-21 04:52:00,
2013-04-21 00:57:00,48.0,45.5,29.85,SE,135,0.0,2.0,91,0.00,,,0.00,Weather View 32 v70,2013-04-21 04:57:00,
2013-04-21 01:02:00,48.1,45.9,29.85,SE,135,0.0,2.0,92,0.00,,,0.00,Weather View 32 v70,2013-04-21 05:02:00,
2013-04-21 01:07:00,47.9,46.0,29.85,SE,135,0.0,2.0,93,0.00,,,0.00,Weather View 32 v70,2013-04-21 05:07:00,
2013-04-21 01:12:00,47.9,46.0,29.85,SE,135,0.0,2.0,93,0.00,,,0.00,Weather View 32 v70,2013-04-21 05:12:00,
2013-04-21 01:17:00,47.8,45.9,29.85,SE,135,0.0,2.0,93,0.00,,,0.00,Weather View 32 v70,2013-04-21 05:17:00,
2013-04-21 01:22:00,47.9,46.0,29.85,SE,135,0.0,2.0,93,0.00,,,0.00,Weather View 32 v70,2013-04-21 05:22:00,
2013-04-21 01:27:00,47.9,46.0,29.85,SE,135,0.0,2.0,93,0.00,,,0.00,Weather View 32 v70,2013-04-21 05:27:00,
2013-04-21 01:32:00,47.9,46.0,29.85,SE,135,0.0,0.0,93,0.00,,,0.00,Weather View 32 v70,2013-04-21 05:32:00,
2013-04-21 01:37:00,47.9,46.3,29.85,SE,135,0.0,0.0,94,0.00,,,0.00,Weather View 32 v70,2013-04-21 05:37:00,
2013-04-21 01:42:00,47.7,46.1,29.85,SE,135,0.0,0.0,94,0.00,,,0.00,Weather View 32 v70,2013-04-21 05:42:00,
2013-04-21 01:47:00,47.4,45.8,29.85,SE,135,0.0,0.0,94,0.00,,,0.00,Weather View 32 v70,2013-04-21 05:47:00,
2013-04-21 01:52:00,47.4,45.5,29.85,SE,135,0.0,0.0,93,0.00,,,0.00,Weather View 32 v70,2013-04-21 05:52:00,
2013-04-21 01:57:00,47.3,45.4,29.85,SE,135,0.0,0.0,93,0.00,,,0.00,Weather View 32 v70,2013-04-21 05:57:00,
2013-04-21 02:02:00,47.1,44.9,29.85,SE,135,0.0,2.0,92,0.00,,,0.00,Weather View 32 v70,2013-04-21 06:02:00,
2013-04-21 02:07:00,46.9,44.7,29.85,SE,135,0.0,2.0,92,0.00,,,0.00,Weather View 32 v70,2013-04-21 06:07:00,
2013-04-21 02:12:00,46.9,44.4,29.85,SE,135,0.0,2.0,91,0.00,,,0.00,Weather View 32 v70,2013-04-21 06:12:00,
2013-04-21 02:17:00,46.8,44.6,29.85,SE,135,0.0,2.0,92,0.00,,,0.00,Weather View 32 v70,2013-04-21 06:17:00,
2013-04-21 02:22:00,46.8,44.3,29.85,SE,135,0.0,2.0,91,0.00,,,0.00,Weather View 32 v70,2013-04-21 06:22:00,
2013-04-21 02:27:00,46.7,44.2,29.85,SE,135,0.0,2.0,91,0.00,,,0.00,Weather View 32 v70,2013-04-21 06:27:00,
2013-04-21 02:32:00,46.6,44.1,29.85,SE,135,0.0,2.0,91,0.00,,,0.00,Weather View 32 v70,2013-04-21 06:32:00,
2013-04-21 02:37:00,46.5,44.3,29.85,SE,135,0.0,2.0,92,0.00,,,0.00,Weather View 32 v70,2013-04-21 06:37:00,
2013-04-21 02:42:00,46.8,44.3,29.85,SE,135,0.0,2.0,91,0.00,,,0.00,Weather View 32 v70,2013-04-21 06:42:00,
2013-04-21 02:47:00,46.7,44.5,29.85,SE,135,0.0,2.0,92,0.00,,,0.00,Weather View 32 v70,2013-04-21 06:47:00,
2013-04-21 02:52:00,46.7,44.5,29.85,SE,135,0.0,2.0,92,0.00,,,0.00,Weather View 32 v70,2013-04-21 06:52:00,
2013-04-21 02:57:00,46.7,44.5,29.85,SE,135,0.0,2.0,92,0.00,,,0.00,Weather View 32 v70,2013-04-21 06:57:00,
2013-04-21 03:02:00,46.8,44.6,29.85,SE,135,0.0,2.0,92,0.00,,,0.00,Weather View 32 v70,2013-04-21 07:02:00,
2013-04-21 03:07:00,46.9,44.7,29.85,SE,135,0.0,2.0,92,0.00,,,0.00,Weather View 32 v70,2013-04-21 07:07:00,
2013-04-21 03:12:00,47.4,45.5,29.85,East,90,1.0,2.0,93,0.00,,,0.00,Weather View 32 v70,2013-04-21 07:12:00,
2013-04-21 03:17:00,47.2,45.6,29.85,East,90,1.0,2.0,94,0.00,,,0.00,Weather View 32 v70,2013-04-21 07:17:00,
2013-04-21 03:22:00,47.4,45.8,29.85,East,90,0.0,2.0,94,0.00,,,0.00,Weather View 32 v70,2013-04-21 07:22:00,
2013-04-21 03:27:00,47.6,46.0,29.85,ENE,67,0.0,2.0,94,0.00,,,0.00,Weather View 32 v70,2013-04-21 07:27:00,
2013-04-21 03:32:00,48.2,46.8,29.85,ENE,67,2.0,2.0,95,0.00,,,0.00,Weather View 32 v70,2013-04-21 07:32:00,
2013-04-21 03:37:00,48.3,47.5,29.85,ENE,67,1.0,2.0,97,0.00,,,0.00,Weather View 32 v70,2013-04-21 07:37:00,
2013-04-21 03:42:00,47.8,47.0,29.85,NNW,337,1.0,2.0,97,0.00,,,0.00,Weather View 32 v70,2013-04-21 07:42:00,
2013-04-21 03:47:00,47.5,46.7,29.85,NNW,337,0.0,2.0,97,0.00,,,0.00,Weather View 32 v70,2013-04-21 07:47:00,
2013-04-21 03:52:00,47.4,46.6,29.85,NNW,337,1.0,2.0,97,0.00,,,0.00,Weather View 32 v70,2013-04-21 07:52:00,
2013-04-21 03:57:00,47.2,46.4,29.85,NNW,337,0.0,2.0,97,0.00,,,0.00,Weather View 32 v70,2013-04-21 07:57:00,
2013-04-21 04:02:00,46.8,46.0,29.85,NNW,337,0.0,2.0,97,0.00,,,0.00,Weather View 32 v70,2013-04-21 08:02:00,
2013-04-21 04:07:00,46.5,45.7,29.85,NNW,337,0.0,2.0,97,0.00,,,0.00,Weather View 32 v70,2013-04-21 08:07:00,
2013-04-21 04:12:00,46.0,45.2,29.85,NNW,337,0.0,2.0,97,0.00,,,0.00,Weather View 32 v70,2013-04-21 08:12:00,
2013-04-21 04:18:00,45.8,45.0,29.85,NNW,337,0.0,2.0,97,0.00,,,0.00,Weather View 32 v70,2013-04-21 08:18:00,
2013-04-21 04:23:00,45.8,45.0,29.85,NNW,337,0.0,2.0,97,0.03,,,0.00,Weather View 32 v70,2013-04-21 08:23:00,
2013-04-21 04:27:00,46.2,45.4,29.85,East,90,2.0,2.0,97,0.00,,,0.00,Weather View 32 v70,2013-04-21 08:27:00,
2013-04-21 04:33:00,46.7,45.9,29.85,East,90,1.0,2.0,97,0.00,,,0.00,Weather View 32 v70,2013-04-21 08:33:00,
2013-04-21 04:38:00,47.2,46.4,29.85,ENE,67,2.0,4.0,97,0.00,,,0.00,Weather View 32 v70,2013-04-21 08:38:00,
2013-04-21 04:43:00,47.8,47.0,29.85,NE,45,2.0,5.0,97,0.00,,,0.00,Weather View 32 v70,2013-04-21 08:43:00,
2013-04-21 04:48:00,48.2,47.4,29.85,NE,45,1.0,5.0,97,0.00,,,0.00,Weather View 32 v70,2013-04-21 08:48:00,
2013-04-21 04:53:00,48.3,47.5,29.85,NE,45,2.0,5.0,97,0.00,,,0.00,Weather View 32 v70,2013-04-21 08:53:00,
2013-04-21 04:58:00,48.4,47.6,29.85,ENE,67,2.0,5.0,97,0.00,,,0.00,Weather View 32 v70,2013-04-21 08:58:00,
2013-04-21 05:03:00,48.1,47.3,29.85,ENE,67,2.0,5.0,97,0.00,,,0.00,Weather View 32 v70,2013-04-21 09:03:00,
2013-04-21 05:08:00,47.9,47.1,29.85,ENE,67,4.0,5.0,97,0.00,,,0.00,Weather View 32 v70,2013-04-21 09:08:00,
2013-04-21 05:13:00,47.9,47.1,29.85,NE,45,2.0,5.0,97,0.00,,,0.00,Weather View 32 v70,2013-04-21 09:13:00,
2013-04-21 05:18:00,47.8,47.0,29.86,ENE,67,5.0,5.0,97,0.00,,,0.00,Weather View 32 v70,2013-04-21 09:18:00,
2013-04-21 05:23:00,48.0,47.2,29.86,NE,45,2.0,6.0,97,0.00,,,0.00,Weather View 32 v70,2013-04-21 09:23:00,
2013-04-21 05:28:00,48.0,47.2,29.86,NE,45,4.0,6.0,97,0.00,,,0.00,Weather View 32 v70,2013-04-21 09:28:00,
2013-04-21 05:33:00,47.9,47.1,29.86,NE,45,4.0,6.0,97,0.00,,,0.00,Weather View 32 v70,2013-04-21 09:33:00,
2013-04-21 05:38:00,47.9,47.1,29.86,NE,45,5.0,7.0,97,0.00,,,0.00,Weather View 32 v70,2013-04-21 09:38:00,
2013-04-21 05:43:00,48.1,47.3,29.86,NE,45,3.0,7.0,97,0.00,,,0.00,Weather View 32 v70,2013-04-21 09:43:00,
2013-04-21 05:48:00,48.0,47.2,29.86,NE,45,3.0,7.0,97,0.00,,,0.00,Weather View 32 v70,2013-04-21 09:48:00,
2013-04-21 05:53:00,48.2,47.4,29.86,NE,45,5.0,7.0,97,0.00,,,0.00,Weather View 32 v70,2013-04-21 09:53:00,
2013-04-21 05:58:00,48.1,47.3,29.86,NE,45,3.0,7.0,97,0.00,,,0.00,Weather View 32 v70,2013-04-21 09:58:00,
2013-04-21 06:03:00,48.1,47.3,29.87,NNE,22,3.0,7.0,97,0.00,,,0.00,Weather View 32 v70,2013-04-21 10:03:00,
2013-04-21 06:08:00,48.1,47.3,29.87,NE,45,1.0,7.0,97,0.00,,,0.00,Weather View 32 v70,2013-04-21 10:08:00,
2013-04-21 06:13:00,48.2,47.4,29.87,NE,45,3.0,7.0,97,0.00,,,0.00,Weather View 32 v70,2013-04-21 10:13:00,
2013-04-21 06:18:00,47.9,47.1,29.88,NE,45,3.0,7.0,97,0.00,,,0.00,Weather View 32 v70,2013-04-21 10:18:00,
2013-04-21 06:23:00,47.9,47.1,29.88,NNE,22,5.0,7.0,97,0.00,,,0.00,Weather View 32 v70,2013-04-21 10:23:00,
2013-04-21 06:28:00,47.9,47.1,29.88,NNE,22,2.0,7.0,97,0.00,,,0.00,Weather View 32 v70,2013-04-21 10:28:00,
2013-04-21 06:34:00,47.9,47.1,29.89,NE,45,1.0,7.0,97,0.00,,,0.00,Weather View 32 v70,2013-04-21 10:34:00,
2013-04-21 06:39:00,47.8,47.0,29.89,NNE,22,1.0,7.0,97,0.00,,,0.00,Weather View 32 v70,2013-04-21 10:39:00,
2013-04-21 06:44:00,47.7,46.9,29.89,NNE,22,2.0,7.0,97,0.00,,,0.00,Weather View 32 v70,2013-04-21 10:44:00,
2013-04-21 06:49:00,47.7,46.9,29.89,ENE,67,5.0,7.0,97,0.00,,,0.00,Weather View 32 v70,2013-04-21 10:49:00,
2013-04-21 06:54:00,47.6,46.8,29.89,NE,45,2.0,7.0,97,0.00,,,0.00,Weather View 32 v70,2013-04-21 10:54:00,
2013-04-21 06:59:00,47.6,46.8,29.90,NE,45,4.0,7.0,97,0.00,,,0.00,Weather View 32 v70,2013-04-21 10:59:00,
2013-04-21 07:04:00,47.7,46.9,29.89,NE,45,4.0,9.0,97,0.00,,,0.00,Weather View 32 v70,2013-04-21 11:04:00,
2013-04-21 07:09:00,48.1,47.3,29.90,North,360,2.0,9.0,97,0.00,,,0.00,Weather View 32 v70,2013-04-21 11:09:00,
2013-04-21 07:14:00,48.3,47.5,29.90,NE,45,4.0,9.0,97,0.00,,,0.00,Weather View 32 v70,2013-04-21 11:14:00,
2013-04-21 07:19:00,48.5,47.7,29.90,NNE,22,7.0,9.0,97,0.00,,,0.00,Weather View 32 v70,2013-04-21 11:19:00,
2013-04-21 07:24:00,48.7,47.9,29.91,NE,45,4.0,9.0,97,0.00,,,0.00,Weather View 32 v70,2013-04-21 11:24:00,
2013-04-21 07:29:00,48.9,48.1,29.91,NE,45,5.0,9.0,97,0.00,,,0.00,Weather View 32 v70,2013-04-21 11:29:00,
2013-04-21 07:34:00,49.2,48.4,29.91,NNE,22,7.0,9.0,97,0.00,,,0.00,Weather View 32 v70,2013-04-21 11:34:00,
2013-04-21 07:39:00,49.7,48.9,29.91,NE,45,6.0,9.0,97,0.00,,,0.00,Weather View 32 v70,2013-04-21 11:39:00,
2013-04-21 07:44:00,49.9,49.1,29.91,NE,45,7.0,11.0,97,0.00,,,0.00,Weather View 32 v70,2013-04-21 11:44:00,
2013-04-21 07:49:00,50.3,49.5,29.91,NE,45,4.0,11.0,97,0.00,,,0.00,Weather View 32 v70,2013-04-21 11:49:00,
2013-04-21 07:54:00,50.5,49.7,29.92,NE,45,3.0,11.0,97,0.00,,,0.00,Weather View 32 v70,2013-04-21 11:54:00,
2013-04-21 07:59:00,50.9,50.1,29.92,NE,45,6.0,11.0,97,0.00,,,0.00,Weather View 32 v70,2013-04-21 11:59:00,
2013-04-21 08:04:00,51.4,50.3,29.93,ENE,67,6.0,11.0,96,0.00,,,0.00,Weather View 32 v70,2013-04-21 12:04:00,
2013-04-21 08:09:00,51.8,50.4,29.92,NNE,22,9.0,12.0,95,0.00,,,0.00,Weather View 32 v70,2013-04-21 12:09:00,
2013-04-21 08:14:00,51.9,50.2,29.93,NNE,22,7.0,12.0,94,0.00,,,0.00,Weather View 32 v70,2013-04-21 12:14:00,
2013-04-21 08:19:00,52.3,50.6,29.93,ENE,67,7.0,12.0,94,0.00,,,0.00,Weather View 32 v70,2013-04-21 12:19:00,
2013-04-21 08:24:00,52.7,50.4,29.93,ENE,67,6.0,12.0,92,0.00,,,0.00,Weather View 32 v70,2013-04-21 12:24:00,
2013-04-21 08:29:00,52.9,50.3,29.93,NE,45,6.0,12.0,91,0.00,,,0.00,Weather View 32 v70,2013-04-21 12:29:00,
2013-04-21 08:34:00,53.3,50.7,29.93,ENE,67,5.0,12.0,91,0.00,,,0.00,Weather View 32 v70,2013-04-21 12:34:00,
2013-04-21 08:39:00,53.6,50.4,29.93,ENE,67,6.0,12.0,89,0.00,,,0.00,Weather View 32 v70,2013-04-21 12:39:00,
2013-04-21 08:44:00,53.9,49.5,29.93,ENE,67,9.0,14.0,85,0.00,,,0.00,Weather View 32 v70,2013-04-21 12:44:00,
2013-04-21 08:49:00,54.4,51.2,29.93,ENE,67,7.0,14.0,89,0.00,,,0.00,Weather View 32 v70,2013-04-21 12:49:00,
2013-04-21 08:54:00,54.7,50.9,29.93,East,90,10.0,14.0,87,0.00,,,0.00,Weather View 32 v70,2013-04-21 12:54:00,
2013-04-21 08:59:00,54.4,49.7,29.93,ENE,67,7.0,14.0,84,0.00,,,0.00,Weather View 32 v70,2013-04-21 12:59:00,
2013-04-21 09:04:00,54.7,49.9,29.94,East,90,7.0,16.0,84,0.00,,,0.00,Weather View 32 v70,2013-04-21 13:04:00,
2013-04-21 09:09:00,55.3,50.9,29.94,ENE,67,7.0,16.0,85,0.00,,,0.00,Weather View 32 v70,2013-04-21 13:09:00,
2013-04-21 09:14:00,55.1,50.0,29.94,NE,45,9.0,16.0,83,0.00,,,0.00,Weather View 32 v70,2013-04-21 13:14:00,
2013-04-21 09:19:00,55.4,50.3,29.94,ENE,67,8.0,16.0,83,0.00,,,0.00,Weather View 32 v70,2013-04-21 13:19:00,
2013-04-21 09:24:00,55.9,49.8,29.95,East,90,5.0,16.0,80,0.00,,,0.00,Weather View 32 v70,2013-04-21 13:24:00,
2013-04-21 09:29:00,56.7,48.5,29.94,NE,45,10.0,16.0,74,0.00,,,0.00,Weather View 32 v70,2013-04-21 13:29:00,
2013-04-21 09:34:00,56.7,48.5,29.94,ENE,67,6.0,16.0,74,0.00,,,0.00,Weather View 32 v70,2013-04-21 13:34:00,
2013-04-21 09:39:00,57.1,48.9,29.95,East,90,5.0,16.0,74,0.00,,,0.00,Weather View 32 v70,2013-04-21 13:39:00,
2013-04-21 09:44:00,57.7,47.2,29.94,ENE,67,15.0,20.0,68,0.00,,,0.00,Weather View 32 v70,2013-04-21 13:44:00,
2013-04-21 09:49:00,57.9,47.0,29.95,NNE,22,12.0,20.0,67,0.00,,,0.00,Weather View 32 v70,2013-04-21 13:49:00,
2013-04-21 09:54:00,58.2,45.6,29.95,ENE,67,7.0,20.0,63,0.00,,,0.00,Weather View 32 v70,2013-04-21 13:54:00,
2013-04-21 09:59:00,58.2,44.3,29.95,East,90,11.0,20.0,60,0.00,,,0.00,Weather View 32 v70,2013-04-21 13:59:00,
2013-04-21 10:04:00,58.1,44.3,29.95,East,90,9.0,20.0,60,0.00,,,0.00,Weather View 32 v70,2013-04-21 14:04:00,
2013-04-21 10:10:00,58.4,45.4,29.95,NE,45,14.0,20.0,62,0.03,,,0.00,Weather View 32 v70,2013-04-21 14:10:00,
2013-04-21 10:15:00,59.3,47.1,29.95,East,90,11.0,20.0,64,0.00,,,0.00,Weather View 32 v70,2013-04-21 14:15:00,
2013-04-21 10:20:00,59.3,44.5,29.95,ENE,67,15.0,20.0,58,0.00,,,0.00,Weather View 32 v70,2013-04-21 14:20:00,
2013-04-21 10:25:00,59.8,45.0,29.95,East,90,11.0,20.0,58,0.00,,,0.00,Weather View 32 v70,2013-04-21 14:25:00,
2013-04-21 10:30:00,60.0,43.3,29.95,East,90,9.0,20.0,54,0.00,,,0.00,Weather View 32 v70,2013-04-21 14:30:00,
2013-04-21 10:35:00,59.8,41.6,29.95,East,90,12.0,21.0,51,0.00,,,0.00,Weather View 32 v70,2013-04-21 14:35:00,
2013-04-21 10:40:00,59.7,40.5,29.95,East,90,21.0,22.0,49,0.00,,,0.00,Weather View 32 v70,2013-04-21 14:40:00,
2013-04-21 10:45:00,59.9,40.6,29.95,ENE,67,11.0,22.0,49,0.00,,,0.00,Weather View 32 v70,2013-04-21 14:45:00,
2013-04-21 10:50:00,60.7,42.4,29.95,East,90,10.0,22.0,51,0.00,,,0.00,Weather View 32 v70,2013-04-21 14:50:00,
2013-04-21 10:55:00,60.5,40.7,29.95,East,90,14.0,22.0,48,0.00,,,0.00,Weather View 32 v70,2013-04-21 14:55:00,
2013-04-21 11:00:00,61.5,42.6,29.95,NE,45,10.0,22.0,50,0.00,,,0.00,Weather View 32 v70,2013-04-21 15:00:00,
2013-04-21 11:05:00,60.9,40.5,29.95,East,90,9.0,25.0,47,0.00,,,0.00,Weather View 32 v70,2013-04-21 15:05:00,
2013-04-21 11:10:00,61.5,41.6,29.96,East,90,22.0,25.0,48,0.00,,,0.00,Weather View 32 v70,2013-04-21 15:10:00,
2013-04-21 11:15:00,61.1,40.7,29.96,East,90,16.0,25.0,47,0.00,,,0.00,Weather View 32 v70,2013-04-21 15:15:00,
2013-04-21 11:20:00,61.1,41.2,29.96,East,90,21.0,25.0,48,0.00,,,0.00,Weather View 32 v70,2013-04-21 15:20:00,
2013-04-21 11:25:00,61.1,40.7,29.96,East,90,18.0,25.0,47,0.00,,,0.00,Weather View 32 v70,2013-04-21 15:25:00,
2013-04-21 11:30:00,61.3,40.3,29.95,ESE,112,14.0,25.0,46,0.00,,,0.00,Weather View 32 v70,2013-04-21 15:30:00,
2013-04-21 11:35:00,61.7,41.2,29.96,ENE,67,20.0,25.0,47,0.00,,,0.00,Weather View 32 v70,2013-04-21 15:35:00,
2013-04-21 11:40:00,62.1,42.1,29.96,East,90,14.0,26.0,48,0.00,,,0.00,Weather View 32 v70,2013-04-21 15:40:00,
2013-04-21 11:45:00,61.4,40.9,29.96,ESE,112,9.0,26.0,47,0.00,,,0.00,Weather View 32 v70,2013-04-21 15:45:00,
2013-04-21 11:50:00,61.4,40.4,29.96,ENE,67,17.0,26.0,46,0.00,,,0.00,Weather View 32 v70,2013-04-21 15:50:00,
2013-04-21 11:55:00,61.9,41.4,29.95,East,90,12.0,26.0,47,0.00,,,0.00,Weather View 32 v70,2013-04-21 15:55:00,
2013-04-21 12:00:00,61.8,40.2,29.96,ENE,67,18.0,26.0,45,0.00,,,0.00,Weather View 32 v70,2013-04-21 16:00:00,
2013-04-21 12:05:00,62.3,41.2,29.95,East,90,9.0,26.0,46,0.00,,,0.00,Weather View 32 v70,2013-04-21 16:05:00,
2013-04-21 12:10:00,62.2,40.0,29.96,East,90,12.0,27.0,44,0.00,,,0.00,Weather View 32 v70,2013-04-21 16:10:00,
2013-04-21 12:15:00,62.2,41.1,29.95,ENE,67,12.0,27.0,46,0.00,,,0.00,Weather View 32 v70,2013-04-21 16:15:00,
2013-04-21 12:20:00,62.8,42.8,29.95,East,90,7.0,27.0,48,0.00,,,0.00,Weather View 32 v70,2013-04-21 16:20:00,
2013-04-21 12:25:00,62.2,40.5,29.95,East,90,14.0,27.0,45,0.00,,,0.00,Weather View 32 v70,2013-04-21 16:25:00,
2013-04-21 12:30:00,62.3,40.1,29.95,ESE,112,9.0,27.0,44,0.00,,,0.00,Weather View 32 v70,2013-04-21 16:30:00,
2013-04-21 12:35:00,62.9,41.2,29.95,ESE,112,12.0,27.0,45,0.00,,,0.00,Weather View 32 v70,2013-04-21 16:35:00,
2013-04-21 12:40:00,63.2,42.0,29.95,ESE,112,14.0,27.0,46,0.00,,,0.00,Weather View 32 v70,2013-04-21 16:40:00,
2013-04-21 12:45:00,64.0,43.9,29.95,ENE,67,15.0,27.0,48,0.00,,,0.00,Weather View 32 v70,2013-04-21 16:45:00,
2013-04-21 12:50:00,63.6,41.8,29.94,East,90,16.0,27.0,45,0.00,,,0.00,Weather View 32 v70,2013-04-21 16:50:00,
2013-04-21 12:55:00,63.6,41.8,29.93,East,90,13.0,27.0,45,0.00,,,0.00,Weather View 32 v70,2013-04-21 16:55:00,
2013-04-21 13:00:00,63.1,41.4,29.95,ESE,112,8.0,27.0,45,0.00,,,0.00,Weather View 32 v70,2013-04-21 17:00:00,
2013-04-21 13:05:00,63.9,42.7,29.95,East,90,14.0,27.0,46,0.00,,,0.00,Weather View 32 v70,2013-04-21 17:05:00,
2013-04-21 13:10:00,63.4,41.6,29.94,East,90,15.0,26.0,45,0.00,,,0.00,Weather View 32 v70,2013-04-21 17:10:00,
2013-04-21 13:15:00,63.8,42.6,29.95,ESE,112,12.0,25.0,46,0.00,,,0.00,Weather View 32 v70,2013-04-21 17:15:00,
2013-04-21 13:20:00,63.9,42.7,29.95,SE,135,9.0,25.0,46,0.00,,,0.00,Weather View 32 v70,2013-04-21 17:20:00,
2013-04-21 13:25:00,63.7,41.3,29.94,ESE,112,7.0,25.0,44,0.00,,,0.00,Weather View 32 v70,2013-04-21 17:25:00,
2013-04-21 13:30:00,63.5,41.7,29.94,East,90,13.0,25.0,45,0.00,,,0.00,Weather View 32 v70,2013-04-21 17:30:00,
2013-04-21 13:35:00,63.7,41.9,29.95,ENE,67,12.0,25.0,45,0.00,,,0.00,Weather View 32 v70,2013-04-21 17:35:00,
2013-04-21 13:40:00,64.3,43.6,29.95,ENE,67,14.0,25.0,47,0.00,,,0.00,Weather View 32 v70,2013-04-21 17:40:00,
2013-04-21 13:45:00,63.9,42.7,29.94,East,90,7.0,25.0,46,0.00,,,0.00,Weather View 32 v70,2013-04-21 17:45:00,
2013-04-21 13:50:00,64.2,42.4,29.94,ENE,67,18.0,25.0,45,0.00,,,0.00,Weather View 32 v70,2013-04-21 17:50:00,
2013-04-21 13:55:00,63.9,42.7,29.94,ENE,67,12.0,25.0,46,0.00,,,0.00,Weather View 32 v70,2013-04-21 17:55:00,
2013-04-21 14:00:00,64.6,43.3,29.94,SE,135,13.0,25.0,46,0.00,,,0.00,Weather View 32 v70,2013-04-21 18:00:00,
2013-04-21 14:06:00,65.4,42.9,29.94,ENE,67,7.0,25.0,44,0.00,,,0.00,Weather View 32 v70,2013-04-21 18:06:00,
2013-04-21 14:11:00,65.8,43.2,29.94,East,90,11.0,25.0,44,0.00,,,0.00,Weather View 32 v70,2013-04-21 18:11:00,
2013-04-21 14:16:00,64.9,41.8,29.94,East,90,10.0,24.0,43,0.00,,,0.00,Weather View 32 v70,2013-04-21 18:16:00,
2013-04-21 14:21:00,65.4,42.9,29.93,East,90,13.0,24.0,44,0.00,,,0.00,Weather View 32 v70,2013-04-21 18:21:00,
2013-04-21 14:26:00,64.9,43.6,29.93,ESE,112,11.0,24.0,46,0.00,,,0.00,Weather View 32 v70,2013-04-21 18:26:00,
2013-04-21 14:31:00,65.1,42.6,29.93,East,90,12.0,24.0,44,0.00,,,0.00,Weather View 32 v70,2013-04-21 18:31:00,
2013-04-21 14:36:00,65.3,42.2,29.93,ESE,112,16.0,24.0,43,0.00,,,0.00,Weather View 32 v70,2013-04-21 18:36:00,
2013-04-21 14:41:00,65.4,42.9,29.93,ESE,112,14.0,23.0,44,0.00,,,0.00,Weather View 32 v70,2013-04-21 18:41:00,
2013-04-21 14:46:00,65.4,42.9,29.93,East,90,7.0,23.0,44,0.00,,,0.00,Weather View 32 v70,2013-04-21 18:46:00,
2013-04-21 14:51:00,65.8,42.6,29.93,ENE,67,14.0,23.0,43,0.00,,,0.00,Weather View 32 v70,2013-04-21 18:51:00,
2013-04-21 14:56:00,65.9,42.7,29.93,East,90,13.0,24.0,43,0.00,,,0.00,Weather View 32 v70,2013-04-21 18:56:00,
2013-04-21 15:01:00,66.2,43.0,29.93,East,90,11.0,24.0,43,0.00,,,0.00,Weather View 32 v70,2013-04-21 19:01:00,
2013-04-21 15:06:00,66.4,42.6,29.93,ENE,67,14.0,24.0,42,0.00,,,0.00,Weather View 32 v70,2013-04-21 19:06:00,
2013-04-21 15:11:00,66.7,43.4,29.93,NE,45,14.0,24.0,43,0.00,,,0.00,Weather View 32 v70,2013-04-21 19:11:00,
2013-04-21 15:16:00,66.5,43.3,29.93,East,90,12.0,24.0,43,0.00,,,0.00,Weather View 32 v70,2013-04-21 19:16:00,
2013-04-21 15:21:00,66.5,42.6,29.93,East,90,12.0,24.0,42,0.00,,,0.00,Weather View 32 v70,2013-04-21 19:21:00,
2013-04-21 15:26:00,65.9,42.7,29.92,ESE,112,7.0,24.0,43,0.00,,,0.00,Weather View 32 v70,2013-04-21 19:26:00,
2013-04-21 15:31:00,66.3,41.2,29.92,ENE,67,13.0,24.0,40,0.00,,,0.00,Weather View 32 v70,2013-04-21 19:31:00,
2013-04-21 15:36:00,66.3,40.5,29.91,ESE,112,10.0,24.0,39,0.00,,,0.00,Weather View 32 v70,2013-04-21 19:36:00,
2013-04-21 15:41:00,66.7,41.6,29.91,East,90,9.0,24.0,40,0.00,,,0.00,Weather View 32 v70,2013-04-21 19:41:00,
2013-04-21 15:46:00,66.9,42.4,29.91,ESE,112,11.0,24.0,41,0.00,,,0.00,Weather View 32 v70,2013-04-21 19:46:00,
2013-04-21 15:51:00,66.9,41.7,29.91,East,90,11.0,24.0,40,0.00,,,0.00,Weather View 32 v70,2013-04-21 19:51:00,
2013-04-21 15:56:00,66.6,40.8,29.91,ENE,67,11.0,21.0,39,0.00,,,0.00,Weather View 32 v70,2013-04-21 19:56:00,
2013-04-21 16:01:00,66.8,41.0,29.90,East,90,8.0,21.0,39,0.00,,,0.00,Weather View 32 v70,2013-04-21 20:01:00,
2013-04-21 16:06:00,67.2,42.0,29.90,ESE,112,7.0,20.0,40,0.00,,,0.00,Weather View 32 v70,2013-04-21 20:06:00,
2013-04-21 16:11:00,66.6,40.8,29.90,East,90,16.0,21.0,39,0.00,,,0.00,Weather View 32 v70,2013-04-21 20:11:00,
2013-04-21 16:16:00,67.1,41.3,29.90,ESE,112,11.0,23.0,39,0.00,,,0.00,Weather View 32 v70,2013-04-21 20:16:00,
2013-04-21 16:21:00,67.0,41.8,29.90,East,90,8.0,23.0,40,0.00,,,0.00,Weather View 32 v70,2013-04-21 20:21:00,
2013-04-21 16:26:00,67.1,41.3,29.89,East,90,12.0,23.0,39,0.00,,,0.00,Weather View 32 v70,2013-04-21 20:26:00,
2013-04-21 16:31:00,67.2,42.0,29.90,ENE,67,12.0,23.0,40,0.00,,,0.00,Weather View 32 v70,2013-04-21 20:31:00,
2013-04-21 16:36:00,66.9,41.1,29.89,East,90,6.0,23.0,39,0.00,,,0.00,Weather View 32 v70,2013-04-21 20:36:00,
2013-04-21 16:42:00,67.3,41.4,29.89,East,90,11.0,23.0,39,0.00,,,0.00,Weather View 32 v70,2013-04-21 20:42:00,
2013-04-21 16:47:00,66.9,41.7,29.89,East,90,10.0,23.0,40,0.00,,,0.00,Weather View 32 v70,2013-04-21 20:47:00,
2013-04-21 16:52:00,67.4,42.2,29.89,East,90,10.0,23.0,40,0.00,,,0.00,Weather View 32 v70,2013-04-21 20:52:00,
2013-04-21 16:57:00,67.4,41.5,29.89,ENE,67,10.0,23.0,39,0.00,,,0.00,Weather View 32 v70,2013-04-21 20:57:00,
2013-04-21 17:02:00,67.3,42.1,29.89,East,90,12.0,25.0,40,0.00,,,0.00,Weather View 32 v70,2013-04-21 21:02:00,
2013-04-21 17:07:00,67.0,41.8,29.89,East,90,9.0,25.0,40,0.00,,,0.00,Weather View 32 v70,2013-04-21 21:07:00,
2013-04-21 17:12:00,67.1,41.3,29.89,East,90,11.0,25.0,39,0.00,,,0.00,Weather View 32 v70,2013-04-21 21:12:00,
2013-04-21 17:17:00,67.5,42.3,29.89,ENE,67,8.0,25.0,40,0.00,,,0.00,Weather View 32 v70,2013-04-21 21:17:00,
2013-04-21 17:22:00,67.3,41.4,29.88,East,90,11.0,25.0,39,0.00,,,0.00,Weather View 32 v70,2013-04-21 21:22:00,
2013-04-21 17:27:00,67.6,43.0,29.88,East,90,6.0,25.0,41,0.00,,,0.00,Weather View 32 v70,2013-04-21 21:27:00,
2013-04-21 17:32:00,67.4,42.2,29.89,ESE,112,14.0,25.0,40,0.00,,,0.00,Weather View 32 v70,2013-04-21 21:32:00,
2013-04-21 17:37:00,67.4,42.2,29.89,East,90,16.0,25.0,40,0.00,,,0.00,Weather View 32 v70,2013-04-21 21:37:00,
2013-04-21 17:42:00,67.1,41.9,29.89,East,90,5.0,25.0,40,0.00,,,0.00,Weather View 32 v70,2013-04-21 21:42:00,
2013-04-21 17:47:00,67.2,42.0,29.89,ENE,67,7.0,25.0,40,0.00,,,0.00,Weather View 32 v70,2013-04-21 21:47:00,
2013-04-21 17:52:00,67.2,42.6,29.89,East,90,6.0,25.0,41,0.00,,,0.00,Weather View 32 v70,2013-04-21 21:52:00,
2013-04-21 17:57:00,66.9,41.7,29.89,East,90,9.0,25.0,40,0.00,,,0.00,Weather View 32 v70,2013-04-21 21:57:00,
2013-04-21 18:02:00,66.9,41.7,29.88,East,90,14.0,20.0,40,0.00,,,0.00,Weather View 32 v70,2013-04-21 22:02:00,
2013-04-21 18:07:00,66.9,42.4,29.89,East,90,14.0,20.0,41,0.00,,,0.00,Weather View 32 v70,2013-04-21 22:07:00,
2013-04-21 18:12:00,67.0,43.1,29.89,East,90,7.0,20.0,42,0.00,,,0.00,Weather View 32 v70,2013-04-21 22:12:00,
2013-04-21 18:17:00,66.9,43.0,29.89,East,90,12.0,20.0,42,0.00,,,0.00,Weather View 32 v70,2013-04-21 22:17:00,
2013-04-21 18:22:00,66.8,42.3,29.89,East,90,9.0,20.0,41,0.00,,,0.00,Weather View 32 v70,2013-04-21 22:22:00,
2013-04-21 18:27:00,66.9,43.0,29.89,East,90,8.0,19.0,42,0.00,,,0.00,Weather View 32 v70,2013-04-21 22:27:00,
2013-04-21 18:32:00,66.7,42.8,29.90,ENE,67,5.0,19.0,42,0.00,,,0.00,Weather View 32 v70,2013-04-21 22:32:00,
2013-04-21 18:37:00,66.7,43.4,29.90,East,90,6.0,19.0,43,0.00,,,0.00,Weather View 32 v70,2013-04-21 22:37:00,
2013-04-21 18:42:00,66.8,43.5,29.90,East,90,4.0,19.0,43,0.00,,,0.00,Weather View 32 v70,2013-04-21 22:42:00,
2013-04-21 18:47:00,66.9,43.0,29.90,East,90,7.0,19.0,42,0.00,,,0.00,Weather View 32 v70,2013-04-21 22:47:00,
2013-04-21 18:52:00,66.4,43.2,29.89,East,90,8.0,19.0,43,0.00,,,0.00,Weather View 32 v70,2013-04-21 22:52:00,
2013-04-21 18:57:00,66.3,43.7,29.90,East,90,6.0,19.0,44,0.00,,,0.00,Weather View 32 v70,2013-04-21 22:57:00,
2013-04-21 19:02:00,65.7,43.7,29.90,East,90,6.0,19.0,45,0.00,,,0.00,Weather View 32 v70,2013-04-21 23:02:00,
2013-04-21 19:07:00,65.7,43.7,29.90,East,90,9.0,19.0,45,0.00,,,0.00,Weather View 32 v70,2013-04-21 23:07:00,
2013-04-21 19:12:00,65.6,43.6,29.90,East,90,5.0,19.0,45,0.00,,,0.00,Weather View 32 v70,2013-04-21 23:12:00,
2013-04-21 19:17:00,65.5,44.1,29.91,ENE,67,6.0,19.0,46,0.00,,,0.00,Weather View 32 v70,2013-04-21 23:17:00,
2013-04-21 19:22:00,65.4,44.6,29.91,East,90,6.0,16.0,47,0.00,,,0.00,Weather View 32 v70,2013-04-21 23:22:00,
2013-04-21 19:27:00,65.3,44.5,29.91,East,90,3.0,16.0,47,0.00,,,0.00,Weather View 32 v70,2013-04-21 23:27:00,
2013-04-21 19:32:00,65.2,44.4,29.91,ENE,67,4.0,15.0,47,0.00,,,0.00,Weather View 32 v70,2013-04-21 23:32:00,
2013-04-21 19:37:00,65.0,44.8,29.91,East,90,4.0,15.0,48,0.00,,,0.00,Weather View 32 v70,2013-04-21 23:37:00,
2013-04-21 19:42:00,64.9,45.2,29.91,ENE,67,4.0,15.0,49,0.00,,,0.00,Weather View 32 v70,2013-04-21 23:42:00,
2013-04-21 19:47:00,64.9,44.7,29.91,ENE,67,5.0,15.0,48,0.00,,,0.00,Weather View 32 v70,2013-04-21 23:47:00,
2013-04-21 19:52:00,64.5,45.9,29.92,ENE,67,5.0,15.0,51,0.00,,,0.00,Weather View 32 v70,2013-04-21 23:52:00,
2013-04-21 19:57:00,64.2,45.6,29.92,NE,45,4.0,15.0,51,0.00,,,0.00,Weather View 32 v70,2013-04-21 23:57:00,
2013-04-21 20:02:00,64.1,46.1,29.91,NE,45,6.0,13.0,52,0.00,,,0.00,Weather View 32 v70,2013-04-22 00:02:00,
2013-04-21 20:07:00,63.7,46.2,29.91,East,90,2.0,12.0,53,0.00,,,0.00,Weather View 32 v70,2013-04-22 00:07:00,
2013-04-21 20:12:00,63.4,46.4,29.93,ENE,67,4.0,10.0,54,0.00,,,0.00,Weather View 32 v70,2013-04-22 00:12:00,
2013-04-21 20:17:00,63.3,47.3,29.93,ENE,67,3.0,10.0,56,0.00,,,0.00,Weather View 32 v70,2013-04-22 00:17:00,
2013-04-21 20:22:00,63.1,47.6,29.93,NE,45,4.0,9.0,57,0.00,,,0.00,Weather View 32 v70,2013-04-22 00:22:00,
2013-04-21 20:27:00,62.9,47.4,29.93,East,90,4.0,9.0,57,0.00,,,0.00,Weather View 32 v70,2013-04-22 00:27:00,
2013-04-21 20:32:00,62.7,47.7,29.93,ENE,67,3.0,9.0,58,0.00,,,0.00,Weather View 32 v70,2013-04-22 00:32:00,
2013-04-21 20:37:00,62.4,47.8,29.93,ENE,67,5.0,9.0,59,0.00,,,0.00,Weather View 32 v70,2013-04-22 00:37:00,
2013-04-21 20:42:00,61.8,49.0,29.93,ESE,112,6.0,9.0,63,0.00,,,0.00,Weather View 32 v70,2013-04-22 00:42:00,
2013-04-21 20:47:00,61.8,51.5,29.93,SE,135,3.0,9.0,69,0.00,,,0.00,Weather View 32 v70,2013-04-22 00:47:00,
2013-04-21 20:52:00,61.6,53.9,29.94,SE,135,5.0,9.0,76,0.00,,,0.00,Weather View 32 v70,2013-04-22 00:52:00,
2013-04-21 20:58:00,61.4,55.5,29.94,ESE,112,8.0,9.0,81,0.00,,,0.00,Weather View 32 v70,2013-04-22 00:58:00,
2013-04-21 21:03:00,61.3,55.7,29.94,ESE,112,7.0,9.0,82,0.00,,,0.00,Weather View 32 v70,2013-04-22 01:03:00,
2013-04-21 21:08:00,61.3,55.7,29.94,SE,135,6.0,9.0,82,0.00,,,0.00,Weather View 32 v70,2013-04-22 01:08:00,
2013-04-21 21:13:00,61.3,56.4,29.94,ESE,112,3.0,9.0,84,0.00,,,0.00,Weather View 32 v70,2013-04-22 01:13:00,
2013-04-21 21:18:00,61.1,55.9,29.94,ESE,112,3.0,9.0,83,0.00,,,0.00,Weather View 32 v70,2013-04-22 01:18:00,
2013-04-21 21:23:00,60.9,55.4,29.94,East,90,3.0,9.0,82,0.00,,,0.00,Weather View 32 v70,2013-04-22 01:23:00,
2013-04-21 21:28:00,60.6,55.7,29.94,SE,135,4.0,9.0,84,0.00,,,0.00,Weather View 32 v70,2013-04-22 01:28:00,
2013-04-21 21:33:00,60.6,56.1,29.95,ESE,112,4.0,9.0,85,0.00,,,0.00,Weather View 32 v70,2013-04-22 01:33:00,
2013-04-21 21:38:00,60.5,56.6,29.95,SE,135,2.0,9.0,87,0.00,,,0.00,Weather View 32 v70,2013-04-22 01:38:00,
2013-04-21 21:43:00,60.3,56.7,29.95,ESE,112,4.0,9.0,88,0.00,,,0.00,Weather View 32 v70,2013-04-22 01:43:00,
2013-04-21 21:48:00,60.3,56.7,29.95,ESE,112,4.0,9.0,88,0.00,,,0.00,Weather View 32 v70,2013-04-22 01:48:00,
2013-04-21 21:53:00,60.1,56.8,29.95,ESE,112,3.0,9.0,89,0.00,,,0.00,Weather View 32 v70,2013-04-22 01:53:00,
2013-04-21 21:58:00,60.1,57.1,29.95,East,90,5.0,9.0,90,0.00,,,0.00,Weather View 32 v70,2013-04-22 01:58:00,
2013-04-21 22:03:00,60.1,57.5,29.95,ESE,112,3.0,9.0,91,0.00,,,0.00,Weather View 32 v70,2013-04-22 02:03:00,
2013-04-21 22:08:00,60.1,57.1,29.95,ESE,112,3.0,9.0,90,0.00,,,0.00,Weather View 32 v70,2013-04-22 02:08:00,
2013-04-21 22:13:00,60.1,56.5,29.95,East,90,2.0,9.0,88,0.00,,,0.00,Weather View 32 v70,2013-04-22 02:13:00,
2013-04-21 22:18:00,60.1,56.2,29.95,ESE,112,6.0,9.0,87,0.00,,,0.00,Weather View 32 v70,2013-04-22 02:18:00,
2013-04-21 22:23:00,59.9,55.7,29.95,SE,135,6.0,9.0,86,0.00,,,0.00,Weather View 32 v70,2013-04-22 02:23:00,
2013-04-21 22:28:00,59.6,57.0,29.95,SE,135,2.0,9.0,91,0.00,,,0.00,Weather View 32 v70,2013-04-22 02:28:00,
2013-04-21 22:33:00,59.7,56.4,29.95,ESE,112,3.0,9.0,89,0.00,,,0.00,Weather View 32 v70,2013-04-22 02:33:00,
2013-04-21 22:38:00,59.6,56.0,29.94,East,90,3.0,9.0,88,0.00,,,0.00,Weather View 32 v70,2013-04-22 02:38:00,
2013-04-21 22:43:00,59.4,56.1,29.94,ESE,112,2.0,9.0,89,0.00,,,0.00,Weather View 32 v70,2013-04-22 02:43:00,
2013-04-21 22:48:00,59.2,56.9,29.94,SE,135,3.0,9.0,92,0.00,,,0.00,Weather View 32 v70,2013-04-22 02:48:00,
2013-04-21 22:53:00,59.3,56.7,29.94,East,90,3.0,14.0,91,0.00,,,0.00,Weather View 32 v70,2013-04-22 02:53:00,
2013-04-21 22:58:00,59.1,55.9,29.94,East,90,3.0,14.0,89,0.00,,,0.00,Weather View 32 v70,2013-04-22 02:58:00,
2013-04-21 23:03:00,59.1,52.9,29.94,ESE,112,6.0,14.0,80,0.00,,,0.00,Weather View 32 v70,2013-04-22 03:03:00,
2013-04-21 23:08:00,59.1,51.2,29.94,ESE,112,8.0,21.0,75,0.00,,,0.00,Weather View 32 v70,2013-04-22 03:08:00,
2013-04-21 23:13:00,58.9,50.2,29.94,ESE,112,10.0,21.0,73,0.00,,,0.00,Weather View 32 v70,2013-04-22 03:13:00,
2013-04-21 23:18:00,58.8,49.4,29.93,East,90,11.0,21.0,71,0.00,,,0.00,Weather View 32 v70,2013-04-22 03:18:00,
2013-04-21 23:23:00,58.6,48.8,29.93,ENE,67,14.0,21.0,70,0.00,,,0.00,Weather View 32 v70,2013-04-22 03:23:00,
2013-04-21 23:28:00,58.4,48.2,29.93,East,90,8.0,21.0,69,0.00,,,0.00,Weather View 32 v70,2013-04-22 03:28:00,
2013-04-21 23:33:00,58.3,48.2,29.93,East,90,11.0,21.0,69,0.00,,,0.00,Weather View 32 v70,2013-04-22 03:33:00,
2013-04-21 23:38:00,57.9,48.2,29.93,East,90,5.0,21.0,70,0.00,,,0.00,Weather View 32 v70,2013-04-22 03:38:00,
2013-04-21 23:43:00,57.8,48.4,29.93,East,90,7.0,21.0,71,0.00,,,0.00,Weather View 32 v70,2013-04-22 03:43:00,
2013-04-21 23:48:00,57.8,48.1,29.93,ENE,67,12.0,21.0,70,0.00,,,0.00,Weather View 32 v70,2013-04-22 03:48:00,
2013-04-21 23:53:00,57.5,48.5,29.93,East,90,7.0,21.0,72,0.00,,,0.00,Weather View 32 v70,2013-04-22 03:53:00,
2013-04-21 23:58:00,57.4,48.8,29.93,East,90,6.0,21.0,73,0.00,,,0.00,Weather View 32 v70,2013-04-22 03:58:00,